createdAt,value
2018-06-15T00:04:08.495Z,16.87
2018-06-15T00:09:12.477Z,16.20
2018-06-15T00:14:16.392Z,15.57
2018-06-15T00:19:20.363Z,15.43
2018-06-15T00:24:24.345Z,12.43
2018-06-15T00:29:28.307Z,10.47
2018-06-15T00:34:33.503Z,12.50
2018-06-15T00:39:37.473Z,7.20
2018-06-15T00:44:41.420Z,5.63
2018-06-15T00:49:45.486Z,9.73
2018-06-15T00:54:49.476Z,18.33
2018-06-15T00:59:54.253Z,6.93
2018-06-15T01:04:58.253Z,16.77
2018-06-15T01:10:02.263Z,7.73
2018-06-15T01:15:06.464Z,8.03
2018-06-15T01:20:10.433Z,7.07
2018-06-15T01:25:14.405Z,9.70
2018-06-15T01:30:18.387Z,16.50
2018-06-15T01:35:22.612Z,17.63
2018-06-15T01:40:26.572Z,8.10
2018-06-15T01:45:30.581Z,13.13
2018-06-15T01:50:34.603Z,17.47
2018-06-15T01:55:39.221Z,19.73
2018-06-15T02:00:43.285Z,17.50
2018-06-15T02:05:47.328Z,9.57
2018-06-15T02:10:51.326Z,18.60
2018-06-15T02:15:55.307Z,10.47
2018-06-15T02:20:59.292Z,13.47
2018-06-15T02:26:03.292Z,8.23
2018-06-15T02:31:07.289Z,6.73
2018-06-15T02:36:11.263Z,7.27
2018-06-15T02:41:15.005Z,6.17
2018-06-15T02:46:20.295Z,12.87
2018-06-15T02:51:24.289Z,6.73
2018-06-15T02:56:28.276Z,19.90
2018-06-15T03:01:32.256Z,14.70
2018-06-15T03:06:36.244Z,16.27
2018-06-15T03:11:40.207Z,7.80
2018-06-15T03:16:44.074Z,22.30
2018-06-15T03:21:48.067Z,22.73
2018-06-15T03:26:52.061Z,9.10
2018-06-15T03:31:56.047Z,21.47
2018-06-15T03:37:00.019Z,22.03
2018-06-15T03:42:04.035Z,20.87
2018-06-15T03:47:08.020Z,22.60
2018-06-15T03:52:11.996Z,9.20
2018-06-15T03:57:16.036Z,23.43
2018-06-15T04:02:20.020Z,23.33
2018-06-15T04:07:23.767Z,21.93
2018-06-15T04:12:27.663Z,11.27
2018-06-15T04:17:31.389Z,7.37
2018-06-15T04:22:36.147Z,6.87
2018-06-15T04:27:40.231Z,21.33
2018-06-15T04:32:44.203Z,15.50
2018-06-15T04:37:48.259Z,7.43
2018-06-15T04:42:52.246Z,24.30
2018-06-15T04:47:56.232Z,23.93
2018-06-15T04:53:00.221Z,26.30
2018-06-15T04:58:04.228Z,26.60
2018-06-15T05:03:08.283Z,12.57
2018-06-15T05:08:15.293Z,26.87
2018-06-15T05:13:19.315Z,21.77
2018-06-15T05:18:23.304Z,8.10
2018-06-15T05:23:27.303Z,25.77
2018-06-15T05:28:31.311Z,30.87
2018-06-15T05:33:35.311Z,32.73
2018-06-15T05:38:39.316Z,17.30
2018-06-15T05:43:43.311Z,29.03
2018-06-15T05:48:48.103Z,28.90
2018-06-15T05:53:51.846Z,29.87
2018-06-15T05:58:55.705Z,20.80
2018-06-15T06:03:59.753Z,13.83
2018-06-15T06:09:05.723Z,13.90
2018-06-15T06:14:10.603Z,13.17
2018-06-15T06:19:15.347Z,16.17
2018-06-15T06:24:19.319Z,14.40
2018-06-15T06:29:23.374Z,19.60
2018-06-15T06:34:27.394Z,14.97
2018-06-15T06:39:31.417Z,14.70
2018-06-15T06:44:35.409Z,17.83
2018-06-15T06:49:39.420Z,15.53
2018-06-15T06:54:43.407Z,22.97
2018-06-15T06:59:48.001Z,22.70
2018-06-15T07:04:52.000Z,24.60
2018-06-15T07:09:55.987Z,15.53
2018-06-15T07:15:00.013Z,21.33
2018-06-15T07:20:04.006Z,17.23
2018-06-15T07:25:07.995Z,19.37
2018-06-15T07:30:11.809Z,28.87
2018-06-15T07:35:15.676Z,28.77
2018-06-15T07:40:19.676Z,27.50
2018-06-15T07:45:23.683Z,25.07
2018-06-15T07:50:27.683Z,20.50
2018-06-15T07:55:31.712Z,14.47
2018-06-15T08:00:35.690Z,22.33
2018-06-15T08:05:39.707Z,22.60
2018-06-15T08:10:43.726Z,16.60
2018-06-15T08:15:47.723Z,17.50
2018-06-15T08:20:52.679Z,15.73
2018-06-15T08:25:56.651Z,14.07
2018-06-15T08:31:00.772Z,14.77
2018-06-15T08:36:04.807Z,16.10
2018-06-15T08:41:08.832Z,18.27
2018-06-15T08:46:12.859Z,13.07
2018-06-15T08:51:16.870Z,17.67
2018-06-15T08:56:20.940Z,14.60
2018-06-15T09:01:24.940Z,15.90
2018-06-15T09:06:28.942Z,16.37
2018-06-15T09:11:32.739Z,14.27
2018-06-15T09:16:36.620Z,13.03
2018-06-15T09:21:40.602Z,10.50
2018-06-15T09:26:44.584Z,8.37
2018-06-15T09:31:48.567Z,9.63
2018-06-15T09:36:52.561Z,10.00
2018-06-15T09:41:56.580Z,7.70
2018-06-15T09:47:00.556Z,6.33
2018-06-15T09:52:04.573Z,6.70
2018-06-15T09:57:08.639Z,7.53
2018-06-15T10:02:12.652Z,8.60
2018-06-15T10:07:16.617Z,5.20
2018-06-15T10:12:20.836Z,7.00
2018-06-15T10:17:24.820Z,9.03
2018-06-15T10:22:29.382Z,7.93
2018-06-15T10:27:33.362Z,6.50
2018-06-15T10:32:37.368Z,4.80
2018-06-15T10:37:41.461Z,4.67
2018-06-15T10:42:45.421Z,4.67
2018-06-15T10:47:49.385Z,5.87
2018-06-15T10:52:53.393Z,4.20
2018-06-15T10:57:57.452Z,6.70
2018-06-15T11:03:01.590Z,4.57
2018-06-15T11:08:05.531Z,4.90
2018-06-15T11:13:10.164Z,4.97
2018-06-15T11:18:14.157Z,5.27
2018-06-15T11:23:18.874Z,4.37
2018-06-15T11:28:22.856Z,3.83
2018-06-15T11:33:26.915Z,3.30
2018-06-15T11:38:30.954Z,3.40
2018-06-15T11:43:34.696Z,5.40
2018-06-15T11:48:38.539Z,5.00
2018-06-15T11:53:42.551Z,3.63
2018-06-15T11:58:46.579Z,3.17
2018-06-15T12:03:50.584Z,4.13
2018-06-15T12:08:54.569Z,3.63
2018-06-15T12:13:58.576Z,2.87
2018-06-15T12:19:02.591Z,2.90
2018-06-15T12:24:06.560Z,4.43
2018-06-15T12:29:10.552Z,3.80
2018-06-15T12:34:14.707Z,3.57
2018-06-15T12:39:18.632Z,3.57
2018-06-15T12:44:22.971Z,2.80
2018-06-15T12:49:26.733Z,3.47
2018-06-15T12:54:30.628Z,2.80
2018-06-15T12:59:34.373Z,3.13
2018-06-15T13:04:38.232Z,2.70
2018-06-15T13:09:42.239Z,2.87
2018-06-15T13:14:46.241Z,3.67
2018-06-15T13:19:50.252Z,3.07
2018-06-15T13:24:54.087Z,2.90
2018-06-15T13:29:57.948Z,2.87
2018-06-15T13:35:02.093Z,3.03
2018-06-15T13:40:06.096Z,2.90
2018-06-15T13:45:10.075Z,3.53
2018-06-15T13:50:14.072Z,3.20
2018-06-15T13:55:18.026Z,3.47
2018-06-15T14:00:22.066Z,3.53
2018-06-15T14:05:26.044Z,3.10
2018-06-15T14:10:30.027Z,2.67
2018-06-15T14:15:33.997Z,3.20
2018-06-15T14:20:37.983Z,3.10
2018-06-15T14:25:41.967Z,2.67
2018-06-15T14:30:45.987Z,2.87
2018-06-15T14:35:49.775Z,2.73
2018-06-15T14:40:53.629Z,2.63
2018-06-15T14:45:57.600Z,2.97
2018-06-15T14:51:01.608Z,3.13
2018-06-15T14:56:05.575Z,2.73
2018-06-15T15:01:09.557Z,2.87
2018-06-15T15:06:13.547Z,2.80
2018-06-15T15:11:17.547Z,2.80
2018-06-15T15:16:21.541Z,2.57
2018-06-15T15:21:25.520Z,2.77
2018-06-15T15:26:29.515Z,2.27
2018-06-15T15:31:33.487Z,2.40
2018-06-15T15:36:37.484Z,2.50
2018-06-15T15:41:41.507Z,3.87
2018-06-15T15:46:45.568Z,2.77
2018-06-15T15:51:49.542Z,2.40
2018-06-15T15:56:53.531Z,3.37
2018-06-15T16:01:57.685Z,2.63
2018-06-15T16:07:01.653Z,2.27
2018-06-15T16:12:05.635Z,2.80
2018-06-15T16:17:09.601Z,2.43
2018-06-15T16:22:13.555Z,2.40
2018-06-15T16:27:17.541Z,1.87
2018-06-15T16:32:21.507Z,2.40
2018-06-15T16:37:25.509Z,2.10
2018-06-15T16:42:29.475Z,2.50
2018-06-15T16:47:33.468Z,2.43
2018-06-15T16:52:37.463Z,2.23
2018-06-15T16:57:41.436Z,2.30
2018-06-15T17:02:45.431Z,2.10
2018-06-15T17:07:49.411Z,2.40
2018-06-15T17:12:53.391Z,2.13
2018-06-15T17:17:57.149Z,2.30
2018-06-15T17:23:01.021Z,3.90
2018-06-15T17:28:04.778Z,3.80
2018-06-15T17:33:08.634Z,2.70
2018-06-15T17:38:12.768Z,2.80
2018-06-15T17:43:16.727Z,2.57
2018-06-15T17:48:20.470Z,2.70
2018-06-15T17:53:24.412Z,2.93
2018-06-15T17:58:28.447Z,2.00
2018-06-15T18:03:32.440Z,2.70
2018-06-15T18:08:36.480Z,2.50
2018-06-15T18:13:40.437Z,2.73
2018-06-15T18:18:44.472Z,2.80
2018-06-15T18:23:48.542Z,2.87
2018-06-15T18:28:53.182Z,3.33
2018-06-15T18:33:58.165Z,3.23
2018-06-15T18:39:04.863Z,3.20
2018-06-15T18:44:09.291Z,2.97
2018-06-15T18:49:13.545Z,2.73
2018-06-15T18:54:17.550Z,3.10
2018-06-15T18:59:21.537Z,2.87
2018-06-15T19:04:25.559Z,2.17
2018-06-15T19:09:29.638Z,2.70
2018-06-15T19:14:34.353Z,2.67
2018-06-15T19:19:38.673Z,2.57
2018-06-15T19:24:42.691Z,3.43
2018-06-15T19:29:46.716Z,2.60
2018-06-15T19:34:50.707Z,3.40
2018-06-15T19:39:54.913Z,3.30
2018-06-15T19:44:58.703Z,2.70
2018-06-15T19:50:02.606Z,2.80
2018-06-15T19:55:06.369Z,2.63
2018-06-15T20:00:10.346Z,3.40
2018-06-15T20:05:14.437Z,2.70
2018-06-15T20:10:18.442Z,3.57
2018-06-15T20:15:22.439Z,3.30
2018-06-15T20:20:26.433Z,3.43
2018-06-15T20:25:30.464Z,3.13
2018-06-15T20:30:34.403Z,4.00
2018-06-15T20:35:38.156Z,3.77
2018-06-15T20:40:42.059Z,5.20
2018-06-15T20:45:46.053Z,4.80
2018-06-15T20:50:50.147Z,5.23
2018-06-15T20:55:54.134Z,4.93
2018-06-15T21:00:58.183Z,4.63
2018-06-15T21:06:02.220Z,4.27
2018-06-15T21:11:06.251Z,4.80
2018-06-15T21:16:10.268Z,3.50
2018-06-15T21:21:14.267Z,4.10
2018-06-15T21:26:18.241Z,3.70
2018-06-15T21:31:22.309Z,4.50
2018-06-15T21:36:26.459Z,5.00
2018-06-15T21:41:30.659Z,4.33
2018-06-15T21:46:34.875Z,4.30
2018-06-15T21:51:38.839Z,3.73
2018-06-15T21:56:42.804Z,3.50
2018-06-15T22:01:46.788Z,4.50
2018-06-15T22:06:50.755Z,4.67
2018-06-15T22:11:54.752Z,5.17
2018-06-15T22:16:58.721Z,4.80
2018-06-15T22:22:02.732Z,4.07
2018-06-15T22:27:06.718Z,4.17
2018-06-15T22:32:10.716Z,4.63
2018-06-15T22:37:14.795Z,3.53
2018-06-15T22:42:18.826Z,5.63
2018-06-15T22:47:22.787Z,6.57
2018-06-15T22:52:26.519Z,6.77
2018-06-15T22:57:30.955Z,5.37
2018-06-15T23:02:35.000Z,4.97
2018-06-15T23:07:38.980Z,9.80
2018-06-15T23:12:42.982Z,6.20
2018-06-15T23:17:46.722Z,8.07
2018-06-15T23:22:50.607Z,17.97
2018-06-15T23:27:54.598Z,9.40
2018-06-15T23:32:58.588Z,16.63
2018-06-15T23:38:02.584Z,15.67
2018-06-15T23:43:06.623Z,12.07
2018-06-15T23:48:10.702Z,9.90
2018-06-15T23:53:14.700Z,8.90
2018-06-15T23:58:18.664Z,7.33
